Humidity-temperature Sensor

Selected Measurement Type: Relative Humidity

 
Relative Humidity [%]     6 entries per hour
Showing data from 9/9/2014 (00:00:00 Z) to 9/6/2014 (00:01:00 Z)
Previous Next [ Day | 3-Days | 7-Days ]
First Last
Prev [ Day | 3-Days | 7-Days ] Next
First Last

Start Time:     :
End Time:     :     
Time (in GMT) :00 :50 :40 :30 :20 :10
Previous Next [ Day | 3-Days | 7-Days ]
First Last
Prev [ Day | 3-Days | 7-Days ] Next
First Last


123 => good data
MM => data is determined as missing
-- => data not received/configured
Back to Top Back to Top
9/9/2014 00:00 to 23:10 77.72 77.57 77.57 77.47 77.55 77.81
9/8/2014 23:00 to 22:10 77.74 77.68 77.30 77.02 76.98 77.79
9/8/2014 22:00 to 21:10 77.66 77.89 77.09 77.40 78.04 79.38
9/8/2014 21:00 to 20:10 79.91 79.82 80.24 80.18 81.22 80.99
9/8/2014 20:00 to 19:10 81.03 81.41 81.45 81.22 81.75 80.77
9/8/2014 19:00 to 18:10 80.41 80.75 81.01 81.90 82.11 81.47
9/8/2014 18:00 to 17:10 80.84 82.07 83.32 79.91 78.59 77.40
9/8/2014 17:00 to 16:10 77.09 78.78 78.25 78.95 78.70 78.36
9/8/2014 16:00 to 15:10 77.59 79.04 78.72 77.59 75.81 75.92
9/8/2014 15:00 to 14:10 78.29 78.55 79.48 80.01 80.92 82.30
9/8/2014 14:00 to 13:10 80.94 80.92 80.75 80.50 79.12 78.36
9/8/2014 13:00 to 12:10 78.12 77.49 76.81 76.39 78.34 78.29
9/8/2014 12:00 to 11:10 77.81 77.53 77.19 78.04 78.55 78.68
9/8/2014 11:00 to 10:10 77.36 76.56 77.13 77.72 77.19 77.40
9/8/2014 10:00 to 9:10 78.25 77.68 78.29 77.51 77.28 76.51
9/8/2014 09:00 to 8:10 76.07 77.59 78.08 77.38 78.27 77.83
9/8/2014 08:00 to 7:10 77.49 76.47 77.83 77.45 78.42 78.63
9/8/2014 07:00 to 6:10 80.03 82.51 81.88 81.54 80.39 80.82
9/8/2014 06:00 to 5:10 81.16 79.35 78.65 79.46 79.12 78.74
9/8/2014 05:00 to 4:10 78.87 78.55 77.93 77.70 77.00 77.15
9/8/2014 04:00 to 3:10 77.45 77.04 77.02 76.85 76.22 76.15
9/8/2014 03:00 to 2:10 76.81 77.13 77.26 76.24 76.30 76.13
9/8/2014 02:00 to 1:10 76.17 75.39 75.71 75.58 75.45 76.39
9/8/2014 01:00 to 0:10 76.30 75.84 75.31 76.00 76.53 76.28
9/8/2014 00:00 to 23:10 76.53 76.24 77.68 79.88 76.58 76.22
9/7/2014 23:00 to 22:10 75.43 76.60 76.98 76.43 77.11 76.96
9/7/2014 22:00 to 21:10 76.98 77.85 78.76 79.65 78.76 78.17
9/7/2014 21:00 to 20:10 77.66 78.06 77.38 77.53 77.43 77.21
9/7/2014 20:00 to 19:10 77.00 78.29 76.66 76.75 76.96 77.72
9/7/2014 19:00 to 18:10 77.74 77.06 76.77 77.00 76.11 75.58
9/7/2014 18:00 to 17:10 76.15 75.81 76.32 76.24 76.47 76.56
9/7/2014 17:00 to 16:10 76.13 75.77 76.03 76.70 77.66 78.72
9/7/2014 16:00 to 15:10 78.36 78.36 79.65 79.99 79.50 79.29
9/7/2014 15:00 to 14:10 78.93 78.19 78.34 78.82 79.23 79.61
9/7/2014 14:00 to 13:10 80.01 79.76 79.38 79.78 79.12 79.74
9/7/2014 13:00 to 12:10 79.18 79.35 79.61 80.27 80.41 80.01
9/7/2014 12:00 to 11:10 79.35 78.85 79.10 79.76 80.80 80.39
9/7/2014 11:00 to 10:10 80.46 80.14 80.10 79.25 78.85 78.17
9/7/2014 10:00 to 9:10 78.65 79.48 79.74 79.14 79.27 78.55
9/7/2014 09:00 to 8:10 78.12 77.83 77.47 76.96 76.90 77.30
9/7/2014 08:00 to 7:10 78.17 78.00 78.27 78.08 77.62 78.32
9/7/2014 07:00 to 6:10 77.72 78.17 78.44 77.74 78.82 78.51
9/7/2014 06:00 to 5:10 78.72 78.63 78.85 77.59 77.43 77.21
9/7/2014 05:00 to 4:10 77.34 77.64 77.32 77.32 76.51 75.94
9/7/2014 04:00 to 3:10 75.26 75.50 75.77 76.15 77.26 77.17
9/7/2014 03:00 to 2:10 77.93 77.91 78.00 77.83 77.87 78.65
9/7/2014 02:00 to 1:10 78.42 76.98 78.32 78.68 78.02 78.15
9/7/2014 01:00 to 0:10 77.15 77.13 77.47 78.15 76.94 77.00
9/7/2014 00:00 to 23:10 78.23 79.25 80.75 80.86 80.69 79.50
9/6/2014 23:00 to 22:10 78.99 79.95 80.44 79.86 79.57 79.50
9/6/2014 22:00 to 21:10 79.57 79.33 79.40 79.25 79.76 80.88
9/6/2014 21:00 to 20:10 83.23 86.12 78.95 78.91 79.48 79.48
9/6/2014 20:00 to 19:10 79.82 80.07 79.63 79.50 79.10 79.40
9/6/2014 19:00 to 18:10 79.48 79.12 80.03 80.41 80.52 81.33
9/6/2014 18:00 to 17:10 80.63 80.77 80.46 80.67 80.31 79.69
9/6/2014 17:00 to 16:10 78.65 77.19 77.93 78.48 80.10 78.97
9/6/2014 16:00 to 15:10 78.27 78.82 78.44 78.91 78.42 78.00
9/6/2014 15:00 to 14:10 78.91 78.74 79.91 79.93 80.31 81.49
9/6/2014 14:00 to 13:10 82.28 79.71 79.82 79.35 79.27 78.57
9/6/2014 13:00 to 12:10 78.80 78.42 78.57 78.17 78.36 78.70
9/6/2014 12:00 to 11:10 78.57 80.10 79.61 79.80 79.54 79.91
9/6/2014 11:00 to 10:10 79.99 79.76 80.58 80.22 80.10 80.29
9/6/2014 10:00 to 9:10 79.84 80.07 79.80 79.78 79.29 79.16
9/6/2014 09:00 to 8:10 78.76 78.82 79.52 78.76 79.38 81.83
9/6/2014 08:00 to 7:10 84.38 78.42 79.01 78.97 79.29 80.07
9/6/2014 07:00 to 6:10 79.61 78.34 79.01 80.14 82.45 82.32
9/6/2014 06:00 to 5:10 82.41 81.88 80.99 80.10 79.82 78.82
9/6/2014 05:00 to 4:10 79.33 79.35 77.72 77.32 79.25 78.80
9/6/2014 04:00 to 3:10 79.18 80.56 83.38 86.20 87.41 92.11
9/6/2014 03:00 to 2:10 89.51 83.64 83.93 80.50 82.70 84.99
9/6/2014 02:00 to 1:10 81.22 79.42 81.09 80.48 81.39 82.17
9/6/2014 01:00 to 0:10 82.98 81.62 77.70 78.40 78.29 78.87